createdAt,value
2022-10-14T00:00:01.615Z,3.60
2022-10-14T00:01:01.608Z,3.58
2022-10-14T00:02:01.683Z,3.54
2022-10-14T00:03:01.592Z,3.53
2022-10-14T00:04:01.598Z,3.54
2022-10-14T00:05:01.571Z,3.58
2022-10-14T00:06:01.558Z,3.65
2022-10-14T00:07:01.531Z,3.68
2022-10-14T00:08:01.509Z,3.67
2022-10-14T00:09:01.533Z,3.61
2022-10-14T00:10:01.500Z,3.61
2022-10-14T00:11:01.502Z,3.61
2022-10-14T00:12:01.486Z,3.58
2022-10-14T00:13:01.475Z,3.57
2022-10-14T00:14:01.443Z,3.54
2022-10-14T00:15:01.482Z,3.54
2022-10-14T00:16:01.445Z,3.57
2022-10-14T00:17:01.425Z,3.57
2022-10-14T00:18:01.412Z,3.53
2022-10-14T00:19:01.415Z,3.53
2022-10-14T00:20:01.399Z,3.50
2022-10-14T00:21:01.376Z,3.52
2022-10-14T00:22:01.396Z,3.50
2022-10-14T00:23:01.373Z,3.50
2022-10-14T00:24:01.336Z,3.49
2022-10-14T00:25:01.327Z,3.52
2022-10-14T00:26:01.321Z,3.52
2022-10-14T00:27:01.312Z,3.50
2022-10-14T00:28:01.289Z,3.53
2022-10-14T00:29:01.288Z,3.53
2022-10-14T00:30:01.268Z,3.53
2022-10-14T00:31:01.269Z,3.58
2022-10-14T00:32:01.271Z,3.57
2022-10-14T00:33:01.246Z,3.60
2022-10-14T00:34:01.255Z,3.60
2022-10-14T00:35:01.253Z,3.61
2022-10-14T00:36:01.213Z,3.62
2022-10-14T00:37:01.175Z,3.62
2022-10-14T00:38:01.196Z,3.61
2022-10-14T00:39:01.195Z,3.62
2022-10-14T00:40:01.163Z,3.62
2022-10-14T00:41:01.146Z,3.65
2022-10-14T00:42:01.142Z,3.64
2022-10-14T00:43:01.164Z,3.62
2022-10-14T00:44:01.124Z,3.61
2022-10-14T00:45:01.108Z,3.60
2022-10-14T00:46:01.135Z,3.57
2022-10-14T00:47:01.071Z,3.57
2022-10-14T00:48:01.098Z,3.52
2022-10-14T00:49:01.088Z,3.49
2022-10-14T00:50:01.037Z,3.43
2022-10-14T00:51:01.040Z,3.40
2022-10-14T00:52:01.017Z,3.40
2022-10-14T00:53:01.049Z,3.36
2022-10-14T00:54:01.017Z,3.40
2022-10-14T00:55:00.990Z,3.36
2022-10-14T00:56:00.991Z,3.33
2022-10-14T00:57:01.003Z,3.28
2022-10-14T00:58:00.943Z,3.24
2022-10-14T00:59:00.965Z,3.23
2022-10-14T01:00:00.940Z,3.20
2022-10-14T01:01:01.113Z,3.15
2022-10-14T01:02:00.932Z,3.13
2022-10-14T01:03:00.913Z,3.13
2022-10-14T01:04:00.905Z,3.13
2022-10-14T01:05:00.881Z,3.13
2022-10-14T01:06:00.905Z,3.10
2022-10-14T01:07:00.862Z,3.10
2022-10-14T01:08:00.908Z,3.10
2022-10-14T01:09:00.855Z,3.13
2022-10-14T01:10:00.814Z,3.12
2022-10-14T01:11:00.806Z,3.12
2022-10-14T01:12:27.061Z,3.12
2022-10-14T01:13:00.797Z,3.10
2022-10-14T01:14:00.787Z,3.10
2022-10-14T01:15:00.781Z,3.09
2022-10-14T01:16:00.750Z,3.09
2022-10-14T01:17:00.753Z,3.09
2022-10-14T01:18:00.725Z,3.07
2022-10-14T01:19:00.743Z,3.07
2022-10-14T01:20:00.701Z,3.06
2022-10-14T01:21:00.693Z,3.05
2022-10-14T01:22:00.686Z,3.03
2022-10-14T01:23:00.684Z,3.05
2022-10-14T01:24:00.674Z,3.03
2022-10-14T01:25:00.654Z,3.03
2022-10-14T01:26:00.646Z,3.02
2022-10-14T01:27:00.648Z,2.98
2022-10-14T01:28:00.642Z,2.98
2022-10-14T01:29:00.680Z,2.97
2022-10-14T01:30:00.596Z,2.94
2022-10-14T01:31:00.593Z,3.02
2022-10-14T01:32:00.581Z,3.07
2022-10-14T01:33:00.574Z,3.09
2022-10-14T01:34:00.571Z,3.15
2022-10-14T01:35:00.588Z,3.18
2022-10-14T01:36:00.543Z,3.15
2022-10-14T01:37:00.505Z,3.13
2022-10-14T01:38:00.515Z,3.10
2022-10-14T01:39:00.536Z,3.07
2022-10-14T01:40:00.474Z,3.03
2022-10-14T01:41:00.480Z,2.98
2022-10-14T01:42:00.496Z,3.03
2022-10-14T01:43:00.450Z,3.06
2022-10-14T01:44:00.434Z,3.05
2022-10-14T01:45:00.453Z,3.05
2022-10-14T01:46:00.421Z,2.98
2022-10-14T01:47:00.388Z,2.98
2022-10-14T01:48:00.454Z,2.98
2022-10-14T01:49:00.392Z,2.94
2022-10-14T01:50:00.389Z,2.94
2022-10-14T01:51:00.348Z,2.91
2022-10-14T01:52:00.342Z,2.88
2022-10-14T01:53:00.369Z,2.85
2022-10-14T01:54:00.380Z,2.84
2022-10-14T01:55:00.322Z,2.79
2022-10-14T01:56:00.297Z,2.77
2022-10-14T01:57:07.218Z,2.76
2022-10-14T01:58:00.286Z,2.76
2022-10-14T01:59:00.271Z,2.71
2022-10-14T02:00:00.308Z,2.69
2022-10-14T02:01:00.265Z,2.67
2022-10-14T02:02:00.338Z,2.67
2022-10-14T02:03:00.217Z,2.67
2022-10-14T02:04:00.215Z,2.69
2022-10-14T02:05:00.202Z,2.70
2022-10-14T02:06:01.753Z,2.70
2022-10-14T02:07:00.177Z,2.70
2022-10-14T02:08:00.945Z,2.69
2022-10-14T02:09:00.202Z,2.71
2022-10-14T02:10:00.173Z,2.73
2022-10-14T02:11:02.483Z,2.70
2022-10-14T02:12:00.141Z,2.66
2022-10-14T02:13:00.116Z,2.66
2022-10-14T02:14:00.445Z,2.64
2022-10-14T02:15:00.222Z,2.63
2022-10-14T02:16:00.089Z,2.59
2022-10-14T02:17:00.110Z,2.58
2022-10-14T02:18:00.589Z,2.58
2022-10-14T02:19:00.049Z,2.58
2022-10-14T02:20:00.051Z,2.55
2022-10-14T02:21:00.082Z,2.56
2022-10-14T02:22:00.026Z,2.56
2022-10-14T02:23:00.009Z,2.56
2022-10-14T02:24:00.258Z,2.55
2022-10-14T02:24:59.989Z,2.56
2022-10-14T02:25:59.966Z,2.55
2022-10-14T02:26:59.958Z,2.53
2022-10-14T02:27:59.982Z,2.56
2022-10-14T02:28:59.989Z,2.58
2022-10-14T02:29:59.926Z,2.59
2022-10-14T02:30:59.933Z,2.59
2022-10-14T02:31:59.896Z,2.61
2022-10-14T02:32:59.901Z,2.61
2022-10-14T02:33:59.879Z,2.61
2022-10-14T02:34:59.868Z,2.61
2022-10-14T02:35:59.884Z,2.61
2022-10-14T02:36:59.855Z,2.59
2022-10-14T02:37:59.825Z,2.58
2022-10-14T02:38:59.836Z,2.58
2022-10-14T02:39:59.839Z,2.59
2022-10-14T02:40:59.796Z,2.63
2022-10-14T02:41:59.794Z,2.64
2022-10-14T02:42:59.778Z,2.66
2022-10-14T02:43:59.778Z,2.64
2022-10-14T02:44:59.770Z,2.63
2022-10-14T02:45:59.766Z,2.61
2022-10-14T02:46:59.736Z,2.61
2022-10-14T02:47:59.718Z,2.59
2022-10-14T02:48:59.746Z,2.64
2022-10-14T02:49:59.736Z,2.63
2022-10-14T02:50:59.750Z,2.63
2022-10-14T02:51:59.686Z,2.63
2022-10-14T02:52:59.674Z,2.63
2022-10-14T02:53:59.705Z,2.63
2022-10-14T02:54:59.649Z,2.61
2022-10-14T02:55:59.657Z,2.61
2022-10-14T02:56:59.633Z,2.61
2022-10-14T02:57:59.598Z,2.63
2022-10-14T02:58:59.611Z,2.63
2022-10-14T02:59:59.605Z,2.66
2022-10-14T03:00:59.567Z,2.66
2022-10-14T03:01:59.621Z,2.67
2022-10-14T03:02:59.559Z,2.70
2022-10-14T03:03:59.546Z,2.71
2022-10-14T03:04:59.561Z,2.73
2022-10-14T03:05:59.526Z,2.73
2022-10-14T03:06:59.562Z,2.73
2022-10-14T03:07:59.505Z,2.76
2022-10-14T03:08:59.491Z,2.74
2022-10-14T03:09:59.472Z,2.76
2022-10-14T03:10:59.464Z,2.76
2022-10-14T03:11:59.476Z,2.79
2022-10-14T03:12:59.571Z,2.79
2022-10-14T03:13:59.456Z,2.81
2022-10-14T03:14:59.435Z,2.84
2022-10-14T03:15:59.428Z,2.85
2022-10-14T03:16:59.421Z,2.87
2022-10-14T03:17:59.386Z,2.89
2022-10-14T03:18:59.369Z,2.92
2022-10-14T03:19:59.389Z,2.91
2022-10-14T03:20:59.380Z,2.89
2022-10-14T03:21:59.374Z,2.87
2022-10-14T03:22:59.317Z,2.89
2022-10-14T03:23:59.337Z,2.89
2022-10-14T03:24:59.395Z,2.89
2022-10-14T03:25:59.301Z,2.88
2022-10-14T03:26:59.293Z,2.85
2022-10-14T03:27:59.286Z,2.84
2022-10-14T03:28:59.393Z,2.81
2022-10-14T03:29:59.321Z,2.81
2022-10-14T03:30:59.271Z,2.82
2022-10-14T03:31:59.240Z,2.81
2022-10-14T03:32:59.220Z,2.82
2022-10-14T03:33:59.217Z,2.84
2022-10-14T03:34:59.236Z,2.84
2022-10-14T03:35:59.275Z,2.84
2022-10-14T03:36:59.179Z,2.84
2022-10-14T03:37:59.197Z,2.82
2022-10-14T03:38:59.168Z,2.82
2022-10-14T03:39:59.138Z,2.82
2022-10-14T03:40:59.151Z,2.82
2022-10-14T03:41:59.137Z,2.84
2022-10-14T03:42:59.126Z,2.85
2022-10-14T03:43:59.151Z,2.85
2022-10-14T03:44:59.131Z,2.85
2022-10-14T03:45:59.085Z,2.85
2022-10-14T03:46:59.102Z,2.88
2022-10-14T03:47:59.060Z,2.89
2022-10-14T03:48:59.038Z,2.91
2022-10-14T03:49:59.052Z,2.91
2022-10-14T03:50:59.036Z,2.94
2022-10-14T03:51:59.037Z,2.98
2022-10-14T03:52:59.031Z,3.00
2022-10-14T03:53:58.992Z,3.02
2022-10-14T03:54:59.003Z,3.03
2022-10-14T03:55:58.943Z,3.05
2022-10-14T03:56:58.949Z,3.05
2022-10-14T03:57:58.923Z,3.05
2022-10-14T03:58:58.992Z,3.06
2022-10-14T03:59:58.948Z,3.06
2022-10-14T04:00:58.903Z,3.09
2022-10-14T04:01:59.823Z,3.12
2022-10-14T04:02:58.895Z,3.13
2022-10-14T04:03:58.898Z,3.18
2022-10-14T04:05:01.051Z,3.18
2022-10-14T04:05:58.875Z,3.20
2022-10-14T04:06:58.861Z,3.20
2022-10-14T04:07:58.846Z,3.20
2022-10-14T04:08:58.854Z,3.23
2022-10-14T04:09:58.836Z,3.23
2022-10-14T04:10:58.779Z,3.24
2022-10-14T04:11:58.777Z,3.24
2022-10-14T04:12:58.780Z,3.25
2022-10-14T04:13:58.766Z,3.25
2022-10-14T04:14:58.814Z,3.27
2022-10-14T04:15:58.738Z,3.27
2022-10-14T04:16:58.725Z,3.25
2022-10-14T04:17:58.710Z,3.25
2022-10-14T04:18:58.688Z,3.25
2022-10-14T04:19:58.714Z,3.27
2022-10-14T04:20:58.700Z,3.25
2022-10-14T04:21:58.700Z,3.25
2022-10-14T04:22:58.655Z,3.24
2022-10-14T04:23:58.695Z,3.23
2022-10-14T04:24:58.632Z,3.24
2022-10-14T04:25:58.653Z,3.23
2022-10-14T04:26:58.637Z,3.24
2022-10-14T04:27:58.610Z,3.23
2022-10-14T04:28:58.679Z,3.23
2022-10-14T04:29:58.579Z,3.21
2022-10-14T04:30:58.640Z,3.21
2022-10-14T04:31:58.560Z,3.23
2022-10-14T04:32:58.547Z,3.21
2022-10-14T04:33:58.534Z,3.21
2022-10-14T04:34:58.549Z,3.23
2022-10-14T04:35:58.533Z,3.25
2022-10-14T04:36:58.514Z,3.28
2022-10-14T04:37:58.544Z,3.31
2022-10-14T04:38:58.482Z,3.33
2022-10-14T04:39:58.467Z,3.39
2022-10-14T04:40:58.460Z,3.40
2022-10-14T04:41:58.480Z,3.42
2022-10-14T04:43:00.281Z,3.42
2022-10-14T04:43:58.420Z,3.43
2022-10-14T04:44:58.402Z,3.43
2022-10-14T04:45:58.405Z,3.43
2022-10-14T04:46:58.383Z,3.42
2022-10-14T04:47:58.389Z,3.42
2022-10-14T04:48:58.377Z,3.46
2022-10-14T04:49:58.350Z,3.46
2022-10-14T04:50:58.377Z,3.46
2022-10-14T04:51:58.382Z,3.44
2022-10-14T04:52:58.317Z,3.46
2022-10-14T04:53:58.301Z,3.44
2022-10-14T04:54:58.293Z,3.46
2022-10-14T04:55:58.281Z,3.47
2022-10-14T04:56:58.287Z,3.46
2022-10-14T04:57:58.296Z,3.50
2022-10-14T04:58:58.251Z,3.49
2022-10-14T04:59:58.236Z,3.50
2022-10-14T05:00:58.241Z,3.50
2022-10-14T05:01:58.231Z,3.50
2022-10-14T05:02:58.242Z,3.49
2022-10-14T05:03:58.191Z,3.52
2022-10-14T05:04:58.224Z,3.50
2022-10-14T05:05:58.161Z,3.50
2022-10-14T05:06:58.169Z,3.49
2022-10-14T05:07:58.140Z,3.50
2022-10-14T05:08:58.168Z,3.49
2022-10-14T05:09:58.133Z,3.47
2022-10-14T05:10:58.108Z,3.49
2022-10-14T05:11:58.102Z,3.47
2022-10-14T05:12:58.094Z,3.49
2022-10-14T05:13:58.114Z,3.47
2022-10-14T05:14:58.082Z,3.47
2022-10-14T05:15:58.064Z,3.50
2022-10-14T05:16:58.818Z,3.50
2022-10-14T05:17:58.019Z,3.50
2022-10-14T05:18:58.036Z,3.50
2022-10-14T05:19:58.037Z,3.52
2022-10-14T05:20:57.985Z,3.53
2022-10-14T05:21:57.988Z,3.53
2022-10-14T05:22:58.010Z,3.53
2022-10-14T05:23:57.964Z,3.60
2022-10-14T05:24:57.993Z,3.61
2022-10-14T05:25:57.973Z,3.61
2022-10-14T05:26:57.950Z,3.61
2022-10-14T05:27:57.944Z,3.61
2022-10-14T05:28:58.031Z,3.60
2022-10-14T05:29:57.906Z,3.60
2022-10-14T05:30:57.909Z,3.61
2022-10-14T05:31:57.871Z,3.61
2022-10-14T05:32:57.872Z,3.62
2022-10-14T05:33:57.900Z,3.62
2022-10-14T05:34:57.833Z,3.62
2022-10-14T05:35:59.583Z,3.62
2022-10-14T05:36:57.815Z,3.65
2022-10-14T05:38:01.999Z,3.65
2022-10-14T05:38:57.791Z,3.65
2022-10-14T05:39:57.822Z,3.64
2022-10-14T05:40:57.783Z,3.64
2022-10-14T05:41:57.768Z,3.65
2022-10-14T05:42:57.757Z,3.64
2022-10-14T05:43:57.748Z,3.65
2022-10-14T05:44:57.784Z,3.64
2022-10-14T05:45:57.757Z,3.65
2022-10-14T05:46:57.713Z,3.65
2022-10-14T05:47:57.692Z,3.64
2022-10-14T05:48:57.686Z,3.65
2022-10-14T05:49:57.744Z,3.67
2022-10-14T05:50:57.685Z,3.67
2022-10-14T05:51:57.681Z,3.68
2022-10-14T05:52:57.641Z,3.68
2022-10-14T05:53:57.672Z,3.67
2022-10-14T05:54:57.606Z,3.65
2022-10-14T05:55:57.605Z,3.65
2022-10-14T05:56:57.638Z,3.62
2022-10-14T05:57:57.587Z,3.65
2022-10-14T05:58:57.661Z,3.64
2022-10-14T05:59:57.552Z,3.65
2022-10-14T06:00:57.566Z,3.67
2022-10-14T06:01:57.557Z,3.65
2022-10-14T06:02:57.686Z,3.68
2022-10-14T06:03:57.539Z,3.67
2022-10-14T06:04:57.516Z,3.67
2022-10-14T06:05:57.491Z,3.68
2022-10-14T06:06:57.482Z,3.68
2022-10-14T06:07:57.469Z,3.70
2022-10-14T06:08:57.442Z,3.70
2022-10-14T06:09:57.508Z,3.71
2022-10-14T06:10:57.452Z,3.71
2022-10-14T06:11:57.419Z,3.71
2022-10-14T06:12:57.401Z,3.70
2022-10-14T06:13:57.434Z,3.71
2022-10-14T06:14:57.376Z,3.72
2022-10-14T06:15:57.401Z,3.72
2022-10-14T06:16:57.369Z,3.72
2022-10-14T06:17:57.362Z,3.76
2022-10-14T06:18:57.464Z,3.78
2022-10-14T06:19:57.324Z,3.79
2022-10-14T06:20:57.343Z,3.78
2022-10-14T06:21:57.335Z,3.79
2022-10-14T06:22:57.304Z,3.80
2022-10-14T06:23:57.279Z,3.79
2022-10-14T06:25:00.469Z,3.79
2022-10-14T06:25:57.308Z,3.80
2022-10-14T06:26:57.270Z,3.82
2022-10-14T06:27:57.234Z,3.82
2022-10-14T06:28:57.344Z,3.85
2022-10-14T06:29:57.228Z,3.83
2022-10-14T06:30:57.216Z,3.86
2022-10-14T06:31:57.222Z,3.86
2022-10-14T06:32:57.183Z,3.89
2022-10-14T06:33:57.249Z,3.90
2022-10-14T06:34:57.200Z,3.94
2022-10-14T06:35:57.160Z,3.96
2022-10-14T06:37:01.969Z,3.96
2022-10-14T06:37:57.194Z,3.97
2022-10-14T06:38:57.111Z,3.97
2022-10-14T06:39:57.130Z,3.97
2022-10-14T06:40:57.156Z,3.98
2022-10-14T06:41:57.097Z,3.97
2022-10-14T06:42:57.073Z,3.97
2022-10-14T06:43:57.117Z,3.97
2022-10-14T06:44:57.090Z,3.97
2022-10-14T06:45:57.092Z,3.98
2022-10-14T06:46:57.056Z,4.00
2022-10-14T06:47:57.414Z,4.01
2022-10-14T06:48:57.013Z,4.01
2022-10-14T06:49:56.998Z,4.03
2022-10-14T06:50:57.053Z,4.00
2022-10-14T06:51:56.985Z,3.98
2022-10-14T06:52:57.199Z,4.01
2022-10-14T06:53:56.955Z,4.01
2022-10-14T06:54:56.986Z,4.03
2022-10-14T06:55:56.968Z,4.03
2022-10-14T06:56:56.907Z,4.03
2022-10-14T06:57:56.903Z,4.01
2022-10-14T06:58:56.945Z,3.98
2022-10-14T06:59:56.920Z,3.98
2022-10-14T07:01:56.908Z,3.98
2022-10-14T07:02:56.842Z,4.00
2022-10-14T07:03:57.026Z,4.01
2022-10-14T07:04:56.860Z,4.03
2022-10-14T07:05:56.812Z,4.03
2022-10-14T07:06:56.815Z,4.04
2022-10-14T07:07:56.881Z,4.10
2022-10-14T07:08:56.778Z,4.12
2022-10-14T07:09:56.819Z,4.15
2022-10-14T07:10:56.837Z,4.18
2022-10-14T07:11:56.755Z,4.18
2022-10-14T07:12:56.737Z,4.21
2022-10-14T07:13:56.752Z,4.22
2022-10-14T07:14:56.726Z,4.22
2022-10-14T07:15:56.716Z,4.22
2022-10-14T07:16:56.761Z,4.24
2022-10-14T07:17:56.752Z,4.26
2022-10-14T07:18:56.688Z,4.29
2022-10-14T07:19:56.696Z,4.36
2022-10-14T07:20:56.661Z,4.37
2022-10-14T07:21:56.672Z,4.40
2022-10-14T07:22:56.643Z,4.43
2022-10-14T07:23:56.675Z,4.50
2022-10-14T07:24:56.630Z,4.52
2022-10-14T07:25:56.703Z,4.55
2022-10-14T07:26:56.716Z,4.54
2022-10-14T07:27:56.560Z,4.52
2022-10-14T07:28:56.593Z,4.51
2022-10-14T07:29:56.554Z,4.54
2022-10-14T07:30:56.555Z,4.58
2022-10-14T07:31:56.545Z,4.58
2022-10-14T07:32:56.567Z,4.59
2022-10-14T07:33:56.528Z,4.54
2022-10-14T07:34:56.488Z,4.54
2022-10-14T07:35:56.534Z,4.57
2022-10-14T07:36:56.492Z,4.59
2022-10-14T07:37:56.515Z,4.59
2022-10-14T07:38:56.449Z,4.62
2022-10-14T07:39:56.442Z,4.65
2022-10-14T07:40:56.484Z,4.70
2022-10-14T07:41:56.431Z,4.73
2022-10-14T07:42:56.410Z,4.72
2022-10-14T07:43:57.133Z,4.75
2022-10-14T07:44:56.377Z,4.79
2022-10-14T07:45:56.356Z,4.76
2022-10-14T07:46:56.446Z,4.77
2022-10-14T07:47:56.383Z,4.79
2022-10-14T07:48:57.796Z,4.80
2022-10-14T07:49:57.333Z,4.80
2022-10-14T07:50:56.315Z,4.79
2022-10-14T07:51:56.485Z,4.76
2022-10-14T07:53:00.302Z,4.75
2022-10-14T07:53:56.287Z,4.75
2022-10-14T07:54:56.270Z,4.75
2022-10-14T07:55:56.252Z,4.79
2022-10-14T07:56:56.266Z,4.80
2022-10-14T07:57:56.237Z,4.84
2022-10-14T07:58:56.235Z,4.86
2022-10-14T07:59:56.233Z,4.84
2022-10-14T08:00:56.199Z,4.84
2022-10-14T08:01:56.267Z,4.83
2022-10-14T08:02:56.216Z,4.83
2022-10-14T08:03:56.171Z,4.86
2022-10-14T08:05:13.187Z,4.86
2022-10-14T08:05:56.151Z,4.86
2022-10-14T08:06:56.131Z,4.89
2022-10-14T08:07:56.147Z,4.89
2022-10-14T08:08:56.176Z,4.89
2022-10-14T08:09:56.141Z,4.89
2022-10-14T08:10:56.167Z,4.89
2022-10-14T08:11:56.077Z,4.89
2022-10-14T08:12:56.068Z,4.91
2022-10-14T08:13:56.134Z,4.92
2022-10-14T08:14:56.060Z,4.94
2022-10-14T08:15:56.046Z,4.98
2022-10-14T08:16:56.084Z,4.99
2022-10-14T08:17:56.002Z,5.07
2022-10-14T08:18:56.032Z,5.13
2022-10-14T08:19:55.997Z,5.17
2022-10-14T08:20:56.010Z,5.22
2022-10-14T08:21:56.022Z,5.31
2022-10-14T08:22:55.956Z,5.37
2022-10-14T08:23:55.940Z,5.43
2022-10-14T08:24:55.997Z,5.48
2022-10-14T08:25:55.935Z,5.46
2022-10-14T08:26:56.011Z,5.48
2022-10-14T08:27:55.900Z,5.49
2022-10-14T08:28:55.935Z,5.53
2022-10-14T08:29:55.893Z,5.57
2022-10-14T08:30:55.862Z,5.56
2022-10-14T08:31:55.901Z,5.57
2022-10-14T08:32:55.854Z,5.59
2022-10-14T08:33:55.832Z,5.59
2022-10-14T08:34:55.817Z,5.60
2022-10-14T08:35:55.806Z,5.59
2022-10-14T08:36:55.799Z,5.59
2022-10-14T08:37:55.829Z,5.60
2022-10-14T08:38:55.823Z,5.64
2022-10-14T08:39:56.128Z,5.67
2022-10-14T08:40:56.005Z,5.68
2022-10-14T08:41:55.738Z,5.70
2022-10-14T08:42:55.822Z,5.73
2022-10-14T08:43:55.730Z,5.75
2022-10-14T08:44:55.723Z,5.82
2022-10-14T08:45:55.767Z,5.78
2022-10-14T08:46:55.716Z,5.78
2022-10-14T08:47:55.676Z,5.81
2022-10-14T08:48:55.681Z,5.85
2022-10-14T08:49:55.648Z,5.91
2022-10-14T08:50:55.644Z,6.01
2022-10-14T08:51:55.651Z,6.06
2022-10-14T08:52:55.623Z,6.06
2022-10-14T08:53:55.630Z,6.01
2022-10-14T08:54:55.610Z,6.00
2022-10-14T08:55:55.612Z,6.03
2022-10-14T08:56:55.580Z,6.07
2022-10-14T08:57:55.682Z,6.10
2022-10-14T08:58:55.574Z,6.11
2022-10-14T08:59:55.537Z,6.14
2022-10-14T09:00:55.547Z,6.19
2022-10-14T09:01:55.557Z,6.16
2022-10-14T09:02:55.580Z,6.07
2022-10-14T09:03:55.563Z,6.06
2022-10-14T09:04:55.475Z,6.10
2022-10-14T09:05:55.491Z,6.11
2022-10-14T09:06:55.451Z,6.13
2022-10-14T09:07:55.431Z,6.16
2022-10-14T09:08:55.438Z,6.16
2022-10-14T09:09:55.426Z,6.14
2022-10-14T09:10:55.407Z,6.14
2022-10-14T09:11:55.416Z,6.13
2022-10-14T09:12:55.403Z,6.16
2022-10-14T09:13:55.383Z,6.16
2022-10-14T09:14:55.407Z,6.11
2022-10-14T09:15:55.378Z,6.13
2022-10-14T09:16:55.338Z,6.13
2022-10-14T09:17:55.370Z,6.09
2022-10-14T09:18:55.325Z,6.09
2022-10-14T09:19:55.394Z,6.09
2022-10-14T09:20:55.342Z,6.11
2022-10-14T09:21:55.291Z,6.14
2022-10-14T09:22:55.332Z,6.13
2022-10-14T09:23:55.359Z,6.11
2022-10-14T09:24:55.311Z,6.13
2022-10-14T09:25:55.246Z,6.14
2022-10-14T09:27:55.234Z,6.07
2022-10-14T09:28:55.265Z,6.09
2022-10-14T09:29:55.273Z,6.10
2022-10-14T09:30:55.995Z,6.11
2022-10-14T09:31:55.278Z,6.11
2022-10-14T09:32:55.173Z,6.11
2022-10-14T09:33:55.155Z,6.10
2022-10-14T09:34:55.185Z,6.14
2022-10-14T09:35:55.160Z,6.11
2022-10-14T09:36:55.129Z,6.13
2022-10-14T09:37:55.151Z,6.14
2022-10-14T09:38:55.105Z,6.16
2022-10-14T09:39:55.129Z,6.14
2022-10-14T09:40:55.081Z,6.13
2022-10-14T09:41:55.055Z,6.13
2022-10-14T09:42:55.132Z,6.16
2022-10-14T09:43:55.046Z,6.16
2022-10-14T09:44:55.229Z,6.22
2022-10-14T09:45:55.017Z,6.29
2022-10-14T09:46:55.025Z,6.30
2022-10-14T09:47:55.028Z,6.25
2022-10-14T09:48:54.980Z,6.13
2022-10-14T09:49:55.027Z,6.11
2022-10-14T09:50:54.971Z,6.10
2022-10-14T09:51:54.955Z,6.11
2022-10-14T09:52:54.991Z,6.18
2022-10-14T09:53:55.027Z,6.26
2022-10-14T09:54:54.930Z,6.33
2022-10-14T09:55:54.912Z,6.35
2022-10-14T09:56:54.894Z,6.38
2022-10-14T09:57:55.609Z,6.43
2022-10-14T09:58:54.884Z,6.41
2022-10-14T09:59:54.992Z,6.35
2022-10-14T10:00:54.965Z,6.32
2022-10-14T10:01:54.881Z,6.32
2022-10-14T10:02:54.832Z,6.30
2022-10-14T10:03:55.011Z,6.25
2022-10-14T10:04:54.852Z,6.25
2022-10-14T10:05:54.787Z,6.28
2022-10-14T10:06:54.828Z,6.28
2022-10-14T10:07:54.807Z,6.26
2022-10-14T10:08:54.780Z,6.30
2022-10-14T10:09:54.803Z,6.28
2022-10-14T10:10:54.734Z,6.32
2022-10-14T10:11:54.742Z,6.32
2022-10-14T10:12:54.720Z,6.40
2022-10-14T10:13:54.697Z,6.44
2022-10-14T10:14:54.710Z,6.46
2022-10-14T10:15:54.714Z,6.44
2022-10-14T10:16:54.675Z,6.41
2022-10-14T10:17:54.656Z,6.44
2022-10-14T10:18:54.660Z,6.43
2022-10-14T10:19:54.633Z,6.44
2022-10-14T10:20:54.638Z,6.48
2022-10-14T10:21:54.640Z,6.48
2022-10-14T10:22:54.619Z,6.48
2022-10-14T10:23:54.591Z,6.53
2022-10-14T10:24:54.579Z,6.56
2022-10-14T10:25:54.567Z,6.59
2022-10-14T10:26:54.606Z,6.58
2022-10-14T10:27:54.597Z,6.58
2022-10-14T10:28:54.590Z,6.56
2022-10-14T10:29:54.515Z,6.61
2022-10-14T10:30:54.512Z,6.61
2022-10-14T10:31:54.537Z,6.59
2022-10-14T10:32:54.505Z,6.61
2022-10-14T10:33:54.499Z,6.62
2022-10-14T10:34:54.463Z,6.65
2022-10-14T10:35:54.455Z,6.71
2022-10-14T10:36:54.473Z,6.77
2022-10-14T10:37:54.447Z,6.73
2022-10-14T10:38:54.420Z,6.72
2022-10-14T10:39:57.005Z,6.77
2022-10-14T10:40:54.405Z,6.77
2022-10-14T10:41:54.398Z,6.77
2022-10-14T10:42:54.408Z,6.81
2022-10-14T10:43:55.029Z,6.86
2022-10-14T10:44:54.400Z,6.89
2022-10-14T10:45:54.345Z,6.89
2022-10-14T10:46:54.928Z,6.84
2022-10-14T10:47:54.727Z,6.81
2022-10-14T10:48:54.328Z,6.81
2022-10-14T10:49:54.349Z,6.77
2022-10-14T10:50:54.292Z,6.76
2022-10-14T10:51:54.311Z,6.72
2022-10-14T10:52:54.380Z,6.71
2022-10-14T10:53:54.347Z,6.69
2022-10-14T10:54:55.077Z,6.69
2022-10-14T10:55:54.356Z,6.68
2022-10-14T10:56:54.551Z,6.63
2022-10-14T10:57:54.212Z,6.66
2022-10-14T10:58:54.316Z,6.66
2022-10-14T10:59:54.196Z,6.68
2022-10-14T11:00:54.239Z,6.69
2022-10-14T11:01:54.187Z,6.71
2022-10-14T11:02:54.149Z,6.68
2022-10-14T11:03:54.157Z,6.68
2022-10-14T11:04:54.137Z,6.71
2022-10-14T11:05:54.115Z,6.73
2022-10-14T11:06:54.123Z,6.76
2022-10-14T11:07:54.091Z,6.73
2022-10-14T11:08:54.169Z,6.71
2022-10-14T11:09:54.077Z,6.69
2022-10-14T11:10:54.110Z,6.68
2022-10-14T11:11:54.037Z,6.68
2022-10-14T11:12:54.056Z,6.68
2022-10-14T11:13:54.019Z,6.69
2022-10-14T11:14:54.007Z,6.71
2022-10-14T11:15:54.014Z,6.68
2022-10-14T11:16:54.049Z,6.65
2022-10-14T11:17:53.983Z,6.65
2022-10-14T11:18:53.974Z,6.68
2022-10-14T11:19:53.989Z,6.72
2022-10-14T11:20:53.964Z,6.76
2022-10-14T11:21:53.923Z,6.77
2022-10-14T11:22:53.985Z,6.81
2022-10-14T11:23:53.906Z,6.84
2022-10-14T11:24:53.903Z,6.87
2022-10-14T11:25:53.884Z,6.90
2022-10-14T11:26:53.882Z,6.89
2022-10-14T11:27:53.883Z,6.86
2022-10-14T11:28:53.997Z,6.87
2022-10-14T11:29:53.865Z,6.90
2022-10-14T11:30:53.830Z,6.94
2022-10-14T11:31:53.830Z,6.98
2022-10-14T11:32:53.810Z,6.99
2022-10-14T11:33:53.807Z,7.02
2022-10-14T11:34:53.813Z,7.05
2022-10-14T11:35:53.799Z,7.08
2022-10-14T11:36:53.759Z,7.09
2022-10-14T11:37:53.773Z,7.13
2022-10-14T11:38:53.775Z,7.16
2022-10-14T11:39:53.799Z,7.17
2022-10-14T11:40:53.810Z,7.15
2022-10-14T11:41:53.858Z,7.19
2022-10-14T11:42:53.709Z,7.20
2022-10-14T11:43:53.721Z,7.20
2022-10-14T11:44:53.685Z,7.23
2022-10-14T11:45:53.699Z,7.26
2022-10-14T11:46:53.654Z,7.31
2022-10-14T11:47:53.633Z,7.35
2022-10-14T11:48:53.652Z,7.37
2022-10-14T11:49:53.748Z,7.37
2022-10-14T11:50:53.619Z,7.40
2022-10-14T11:51:53.611Z,7.41
2022-10-14T11:52:53.583Z,7.42
2022-10-14T11:53:53.591Z,7.42
2022-10-14T11:54:53.576Z,7.50
2022-10-14T11:55:53.575Z,7.55
2022-10-14T11:56:53.561Z,7.58
2022-10-14T11:57:53.532Z,7.60
2022-10-14T11:58:53.540Z,7.60
2022-10-14T11:59:53.560Z,7.59
2022-10-14T12:00:53.514Z,7.67
2022-10-14T12:01:53.492Z,7.74
2022-10-14T12:02:53.554Z,7.77
2022-10-14T12:03:53.502Z,7.75
2022-10-14T12:04:53.463Z,7.71
2022-10-14T12:05:53.447Z,7.71
2022-10-14T12:06:53.483Z,7.72
2022-10-14T12:07:53.451Z,7.71
2022-10-14T12:08:53.399Z,7.71
2022-10-14T12:09:55.918Z,7.69
2022-10-14T12:10:53.376Z,7.71
2022-10-14T12:11:53.408Z,7.69
2022-10-14T12:12:53.369Z,7.72
2022-10-14T12:13:53.358Z,7.75
2022-10-14T12:14:53.356Z,7.81
2022-10-14T12:15:53.323Z,7.84
2022-10-14T12:16:53.364Z,7.87
2022-10-14T12:17:53.302Z,7.89
2022-10-14T12:18:53.287Z,7.87
2022-10-14T12:19:53.316Z,7.92
2022-10-14T12:20:53.256Z,7.85
2022-10-14T12:21:53.256Z,7.82
2022-10-14T12:22:53.283Z,7.81
2022-10-14T12:23:53.260Z,7.82
2022-10-14T12:24:53.222Z,7.82
2022-10-14T12:25:53.238Z,7.87
2022-10-14T12:26:53.279Z,7.89
2022-10-14T12:27:53.214Z,7.89
2022-10-14T12:28:54.118Z,7.90
2022-10-14T12:29:53.239Z,7.92
2022-10-14T12:30:54.114Z,7.94
2022-10-14T12:31:53.146Z,7.92
2022-10-14T12:32:53.171Z,7.94
2022-10-14T12:33:53.183Z,7.97
2022-10-14T12:34:53.119Z,8.00
2022-10-14T12:35:53.107Z,8.02
2022-10-14T12:36:53.111Z,8.03
2022-10-14T12:37:53.154Z,8.08
2022-10-14T12:38:53.077Z,8.07
2022-10-14T12:39:53.140Z,8.04
2022-10-14T12:40:53.069Z,8.02
2022-10-14T12:41:53.022Z,8.02
2022-10-14T12:42:53.748Z,8.04
2022-10-14T12:43:52.996Z,8.03
2022-10-14T12:44:53.024Z,8.02
2022-10-14T12:45:52.997Z,7.97
2022-10-14T12:46:52.975Z,7.97
2022-10-14T12:47:52.969Z,7.97
2022-10-14T12:48:53.600Z,7.96
2022-10-14T12:49:53.165Z,7.96
2022-10-14T12:50:52.968Z,7.99
2022-10-14T12:51:52.921Z,7.94
2022-10-14T12:52:52.929Z,7.93
2022-10-14T12:53:52.880Z,7.94
2022-10-14T12:55:52.903Z,7.99
2022-10-14T12:56:52.877Z,7.97
2022-10-14T12:57:52.867Z,7.97
2022-10-14T12:58:52.855Z,8.00
2022-10-14T12:59:52.964Z,8.00
2022-10-14T13:00:52.830Z,8.03
2022-10-14T13:01:52.816Z,8.04
2022-10-14T13:02:52.847Z,8.04
2022-10-14T13:03:52.860Z,8.04
2022-10-14T13:04:52.791Z,8.04
2022-10-14T13:05:52.788Z,8.00
2022-10-14T13:06:52.771Z,7.99
2022-10-14T13:07:52.732Z,7.99
2022-10-14T13:08:52.717Z,8.00
2022-10-14T13:09:52.750Z,7.97
2022-10-14T13:10:52.717Z,8.02
2022-10-14T13:11:52.693Z,8.02
2022-10-14T13:12:52.756Z,8.03
2022-10-14T13:13:52.726Z,8.03
2022-10-14T13:14:52.676Z,8.04
2022-10-14T13:15:52.663Z,8.03
2022-10-14T13:16:52.627Z,8.04
2022-10-14T13:17:52.629Z,8.07
2022-10-14T13:18:52.664Z,8.08
2022-10-14T13:19:52.666Z,8.08
2022-10-14T13:20:52.613Z,8.08